createdAt,value
2023-05-08T00:01:07.265Z,8.87
2023-05-08T00:04:10.635Z,8.50
2023-05-08T00:07:13.953Z,8.73
2023-05-08T00:10:17.084Z,8.47
2023-05-08T00:13:23.954Z,8.70
2023-05-08T00:16:27.395Z,8.73
2023-05-08T00:19:30.561Z,8.37
2023-05-08T00:22:33.656Z,8.83
2023-05-08T00:25:36.807Z,8.57
2023-05-08T00:28:41.275Z,9.27
2023-05-08T00:31:44.429Z,9.40
2023-05-08T00:34:50.536Z,9.50
2023-05-08T00:37:53.777Z,9.57
2023-05-08T00:40:56.886Z,8.63
2023-05-08T00:44:01.310Z,9.53
2023-05-08T00:47:04.524Z,10.07
2023-05-08T00:50:08.733Z,9.40
2023-05-08T00:53:13.756Z,9.60
2023-05-08T00:56:19.966Z,9.27
2023-05-08T00:59:25.931Z,9.80
2023-05-08T01:02:31.474Z,9.73
2023-05-08T01:05:34.976Z,8.63
2023-05-08T01:08:38.107Z,9.20
2023-05-08T01:11:48.789Z,9.80
2023-05-08T01:15:03.174Z,9.67
2023-05-08T01:18:16.205Z,9.50
2023-05-08T01:21:27.314Z,10.50
2023-05-08T01:24:48.501Z,9.50
2023-05-08T01:28:09.656Z,9.50
2023-05-08T01:31:26.108Z,10.10
2023-05-08T01:34:34.147Z,10.17
2023-05-08T01:37:46.005Z,10.33
2023-05-08T01:40:54.638Z,10.40
2023-05-08T01:44:08.985Z,10.33
2023-05-08T01:47:13.393Z,10.50
2023-05-08T01:50:22.072Z,10.97
2023-05-08T01:53:29.799Z,10.30
2023-05-08T01:56:34.103Z,11.77
2023-05-08T01:59:40.027Z,11.10
2023-05-08T02:02:45.041Z,11.53
2023-05-08T02:05:52.121Z,11.03
2023-05-08T02:08:57.264Z,13.17
2023-05-08T02:12:03.012Z,11.77
2023-05-08T02:15:09.025Z,9.77
2023-05-08T02:18:13.991Z,11.60
2023-05-08T02:21:19.953Z,11.60
2023-05-08T02:24:25.246Z,12.00
2023-05-08T02:27:30.255Z,11.83
2023-05-08T02:30:34.902Z,12.63
2023-05-08T02:33:39.787Z,12.07
2023-05-08T02:36:44.766Z,12.60
2023-05-08T02:39:49.330Z,12.13
2023-05-08T02:42:52.563Z,12.30
2023-05-08T02:46:12.170Z,12.70
2023-05-08T02:49:26.532Z,12.07
2023-05-08T02:52:34.194Z,12.33
2023-05-08T02:55:49.419Z,13.40
2023-05-08T02:59:01.001Z,11.33
2023-05-08T03:02:09.685Z,11.73
2023-05-08T03:05:18.133Z,12.27
2023-05-08T03:08:27.161Z,13.23
2023-05-08T03:11:38.088Z,14.37
2023-05-08T03:14:46.547Z,12.03
2023-05-08T03:17:54.096Z,12.77
2023-05-08T03:21:00.555Z,12.00
2023-05-08T03:24:07.287Z,12.07
2023-05-08T03:27:11.093Z,11.30
2023-05-08T03:30:15.836Z,12.13
2023-05-08T03:33:19.266Z,12.23
2023-05-08T03:36:24.976Z,11.57
2023-05-08T03:39:29.441Z,12.27
2023-05-08T03:42:33.408Z,11.70
2023-05-08T03:45:37.872Z,12.10
2023-05-08T03:48:42.329Z,11.83
2023-05-08T03:51:46.436Z,12.80
2023-05-08T03:54:50.941Z,13.63
2023-05-08T03:58:00.831Z,13.40
2023-05-08T04:01:09.477Z,13.60
2023-05-08T04:04:18.106Z,13.00
2023-05-08T04:07:28.975Z,12.10
2023-05-08T04:10:42.337Z,12.43
2023-05-08T04:13:51.422Z,13.77
2023-05-08T04:17:10.989Z,13.20
2023-05-08T04:20:18.403Z,12.17
2023-05-08T04:23:24.189Z,13.17
2023-05-08T04:26:29.417Z,12.87
2023-05-08T04:29:34.177Z,13.37
2023-05-08T04:32:40.262Z,14.23
2023-05-08T04:35:46.060Z,14.60
2023-05-08T04:38:49.157Z,15.20
2023-05-08T04:41:55.729Z,14.30
2023-05-08T04:44:58.851Z,15.33
2023-05-08T04:48:01.944Z,14.63
2023-05-08T04:51:05.478Z,14.70
2023-05-08T04:54:08.864Z,14.70
2023-05-08T04:57:13.289Z,14.87
2023-05-08T05:00:17.352Z,15.93
2023-05-08T05:03:20.434Z,15.40
2023-05-08T05:06:23.710Z,15.50
2023-05-08T05:09:26.807Z,16.70
2023-05-08T05:12:31.231Z,15.37
2023-05-08T05:15:34.354Z,15.33
2023-05-08T05:18:37.558Z,15.20
2023-05-08T05:21:40.764Z,15.20
2023-05-08T05:24:43.839Z,15.40
2023-05-08T05:27:48.291Z,17.20
2023-05-08T05:30:51.470Z,15.47
2023-05-08T05:33:54.634Z,17.17
2023-05-08T05:36:57.758Z,16.00
2023-05-08T05:40:00.945Z,13.40
2023-05-08T05:43:05.380Z,15.40
2023-05-08T05:46:09.595Z,15.07
2023-05-08T05:49:12.974Z,15.70
2023-05-08T05:52:16.352Z,17.10
2023-05-08T05:55:19.521Z,15.17
2023-05-08T05:58:24.021Z,16.63
2023-05-08T06:01:29.148Z,14.57
2023-05-08T06:04:32.323Z,16.07
2023-05-08T06:07:35.868Z,14.63
2023-05-08T06:10:39.038Z,16.37
2023-05-08T06:13:43.964Z,16.40
2023-05-08T06:16:47.196Z,15.67
2023-05-08T06:19:53.992Z,16.20
2023-05-08T06:22:57.076Z,15.70
2023-05-08T06:26:00.366Z,16.70
2023-05-08T06:29:04.817Z,17.50
2023-05-08T06:32:08.170Z,16.83
2023-05-08T06:35:12.392Z,16.60
2023-05-08T06:38:16.013Z,18.10
2023-05-08T06:41:19.226Z,16.43
2023-05-08T06:44:23.741Z,16.43
2023-05-08T06:47:26.961Z,17.57
2023-05-08T06:50:30.165Z,16.47
2023-05-08T06:53:33.253Z,17.30
2023-05-08T06:56:36.512Z,16.30
2023-05-08T06:59:41.041Z,17.03
2023-05-08T07:02:44.231Z,15.43
2023-05-08T07:05:47.309Z,15.20
2023-05-08T07:08:50.581Z,16.00
2023-05-08T07:11:54.776Z,17.47
2023-05-08T07:14:59.680Z,15.80
2023-05-08T07:18:05.387Z,15.83
2023-05-08T07:21:08.774Z,15.00
2023-05-08T07:24:11.884Z,16.10
2023-05-08T07:27:15.426Z,16.60
2023-05-08T07:30:20.033Z,15.40
2023-05-08T07:33:23.173Z,16.00
2023-05-08T07:36:26.488Z,18.67
2023-05-08T07:39:32.736Z,18.13
2023-05-08T07:42:40.490Z,15.80
2023-05-08T07:45:45.004Z,16.87
2023-05-08T07:48:48.113Z,18.10
2023-05-08T07:51:51.310Z,17.10
2023-05-08T07:54:54.418Z,17.80
2023-05-08T07:57:57.562Z,17.70
2023-05-08T08:01:02.311Z,15.97
2023-05-08T08:04:06.157Z,20.57
2023-05-08T08:07:09.366Z,19.23
2023-05-08T08:10:12.668Z,19.10
2023-05-08T08:13:15.831Z,19.13
2023-05-08T08:16:20.340Z,17.60
2023-05-08T08:19:23.561Z,19.63
2023-05-08T08:22:27.390Z,17.80
2023-05-08T08:25:30.716Z,19.33
2023-05-08T08:28:33.842Z,17.30
2023-05-08T08:31:38.323Z,16.77
2023-05-08T08:34:41.463Z,18.00
2023-05-08T08:37:44.568Z,16.70
2023-05-08T08:40:47.765Z,17.60
2023-05-08T08:43:50.952Z,15.50
2023-05-08T08:46:56.142Z,17.37
2023-05-08T08:50:03.913Z,18.37
2023-05-08T08:53:12.352Z,17.43
2023-05-08T08:56:17.502Z,17.63
2023-05-08T08:59:21.898Z,16.97
2023-05-08T09:02:27.981Z,18.03
2023-05-08T09:05:31.670Z,18.27
2023-05-08T09:08:35.792Z,17.70
2023-05-08T09:11:39.906Z,16.43
2023-05-08T09:14:43.240Z,18.00
2023-05-08T09:17:47.825Z,17.87
2023-05-08T09:20:51.769Z,18.13
2023-05-08T09:24:01.649Z,18.33
2023-05-08T09:27:05.584Z,19.20
2023-05-08T09:30:10.315Z,18.30
2023-05-08T09:33:15.097Z,18.27
2023-05-08T09:36:28.076Z,18.30
2023-05-08T09:39:31.314Z,18.23
2023-05-08T09:42:39.504Z,19.00
2023-05-08T09:45:42.781Z,17.87
2023-05-08T09:48:47.351Z,18.50
2023-05-08T09:51:55.050Z,18.37
2023-05-08T09:55:00.104Z,19.00
2023-05-08T09:58:04.062Z,19.63
2023-05-08T10:01:07.569Z,20.47
2023-05-08T10:04:12.147Z,19.50
2023-05-08T10:07:15.322Z,18.67
2023-05-08T10:10:26.178Z,18.07
2023-05-08T10:13:29.731Z,20.93
2023-05-08T10:16:37.292Z,18.83
2023-05-08T10:19:46.700Z,20.50
2023-05-08T10:22:50.364Z,20.93
2023-05-08T10:26:00.056Z,20.23
2023-05-08T10:29:08.548Z,22.83
2023-05-08T10:32:14.339Z,20.40
2023-05-08T10:35:20.007Z,22.13
2023-05-08T10:38:24.378Z,20.40
2023-05-08T10:41:28.027Z,22.07
2023-05-08T10:44:32.913Z,22.80
2023-05-08T10:48:00.693Z,21.90
2023-05-08T10:51:10.752Z,22.27
2023-05-08T10:54:21.773Z,21.20
2023-05-08T10:57:24.940Z,21.60
2023-05-08T11:00:32.488Z,22.90
2023-05-08T11:03:41.833Z,21.77
2023-05-08T11:06:52.989Z,22.60
2023-05-08T11:09:56.241Z,21.23
2023-05-08T11:13:01.312Z,24.47
2023-05-08T11:16:06.552Z,23.10
2023-05-08T11:19:20.406Z,21.73
2023-05-08T11:22:28.632Z,21.60
2023-05-08T11:25:43.790Z,22.10
2023-05-08T11:28:58.553Z,21.40
2023-05-08T11:32:01.812Z,20.77
2023-05-08T11:35:11.216Z,22.33
2023-05-08T11:38:20.789Z,21.73
2023-05-08T11:41:25.680Z,19.90
2023-05-08T11:44:30.649Z,22.30
2023-05-08T11:47:44.159Z,20.30
2023-05-08T11:50:48.055Z,20.27
2023-05-08T11:53:52.942Z,19.83
2023-05-08T11:56:56.308Z,19.20
2023-05-08T11:59:59.570Z,20.80
2023-05-08T12:03:07.989Z,20.40
2023-05-08T12:06:11.314Z,20.33
2023-05-08T12:09:17.658Z,19.53
2023-05-08T12:12:20.766Z,18.10
2023-05-08T12:15:23.955Z,19.53
2023-05-08T12:18:29.381Z,18.77
2023-05-08T12:21:32.636Z,19.90
2023-05-08T12:24:37.396Z,20.87
2023-05-08T12:27:40.704Z,19.87
2023-05-08T12:30:43.942Z,19.47
2023-05-08T12:33:47.405Z,20.20
2023-05-08T12:36:51.410Z,19.10
2023-05-08T12:39:56.202Z,20.20
2023-05-08T12:43:02.202Z,20.23
2023-05-08T12:46:06.219Z,19.80
2023-05-08T12:49:12.962Z,21.07
2023-05-08T12:52:18.167Z,20.57
2023-05-08T12:55:27.899Z,18.70
2023-05-08T12:58:32.770Z,19.00
2023-05-08T13:01:35.981Z,20.90
2023-05-08T13:04:39.581Z,18.20
2023-05-08T13:07:42.885Z,19.90
2023-05-08T13:10:52.652Z,19.90
2023-05-08T13:13:55.840Z,18.97
2023-05-08T13:16:59.868Z,19.30
2023-05-08T13:20:05.922Z,19.50
2023-05-08T13:23:10.381Z,18.60
2023-05-08T13:26:14.865Z,18.40
2023-05-08T13:29:17.963Z,19.40
2023-05-08T13:32:21.165Z,18.73
2023-05-08T13:35:24.951Z,18.03
2023-05-08T13:38:28.133Z,18.73
2023-05-08T13:41:32.624Z,19.70
2023-05-08T13:44:35.738Z,19.13
2023-05-08T13:47:38.828Z,20.17
2023-05-08T13:50:41.916Z,19.10
2023-05-08T13:53:45.037Z,19.63
2023-05-08T13:56:49.932Z,20.80
2023-05-08T13:59:53.224Z,18.07
2023-05-08T14:02:56.563Z,18.57
2023-05-08T14:05:59.734Z,18.80
2023-05-08T14:09:02.852Z,19.20
2023-05-08T14:12:07.513Z,17.63
2023-05-08T14:15:13.792Z,18.00
2023-05-08T14:18:17.075Z,18.33
2023-05-08T14:21:20.222Z,18.23
2023-05-08T14:24:23.396Z,17.57
2023-05-08T14:27:27.974Z,17.77
2023-05-08T14:30:31.054Z,18.17
2023-05-08T14:33:34.164Z,17.77
2023-05-08T14:36:37.283Z,17.43
2023-05-08T14:39:40.417Z,15.50
2023-05-08T14:42:44.925Z,17.80
2023-05-08T14:45:48.206Z,17.43
2023-05-08T14:48:51.367Z,18.23
2023-05-08T14:51:54.531Z,17.77
2023-05-08T14:54:58.787Z,18.20
2023-05-08T14:58:03.406Z,17.70
2023-05-08T15:01:06.716Z,17.07
2023-05-08T15:04:10.778Z,17.23
2023-05-08T15:07:13.891Z,17.77
2023-05-08T15:10:17.389Z,19.47
2023-05-08T15:13:21.869Z,20.17
2023-05-08T15:16:25.009Z,18.30
2023-05-08T15:19:28.273Z,19.03
2023-05-08T15:22:31.472Z,18.23
2023-05-08T15:25:34.637Z,18.30
2023-05-08T15:28:41.323Z,17.20
2023-05-08T15:31:44.524Z,20.07
2023-05-08T15:34:47.764Z,18.20
2023-05-08T15:37:50.980Z,19.20
2023-05-08T15:40:54.267Z,19.40
2023-05-08T15:43:58.869Z,18.73
2023-05-08T15:47:02.733Z,19.00
2023-05-08T15:50:06.493Z,21.20
2023-05-08T15:53:09.598Z,18.80
2023-05-08T15:56:12.738Z,20.07
2023-05-08T15:59:17.182Z,18.30
2023-05-08T16:02:20.398Z,19.17
2023-05-08T16:05:23.656Z,20.03
2023-05-08T16:08:26.957Z,18.73
2023-05-08T16:11:31.788Z,18.33
2023-05-08T16:14:36.961Z,18.60
2023-05-08T16:17:40.143Z,19.83
2023-05-08T16:20:43.483Z,20.00
2023-05-08T16:23:47.036Z,18.70
2023-05-08T16:26:50.248Z,17.97
2023-05-08T16:29:54.721Z,18.90
2023-05-08T16:32:57.884Z,19.83
2023-05-08T16:36:01.105Z,17.40
2023-05-08T16:39:04.617Z,18.13
2023-05-08T16:42:07.821Z,19.53
2023-05-08T16:45:13.610Z,18.17
2023-05-08T16:48:20.187Z,18.63
2023-05-08T16:51:23.270Z,18.70
2023-05-08T16:54:26.420Z,18.60
2023-05-08T16:57:30.709Z,18.33
2023-05-08T17:00:35.703Z,19.73
2023-05-08T17:03:39.052Z,19.03
2023-05-08T17:06:42.292Z,22.20
2023-05-08T17:09:48.412Z,22.47
2023-05-08T17:12:54.020Z,18.33
2023-05-08T17:15:59.215Z,18.50
2023-05-08T17:19:02.315Z,19.93
2023-05-08T17:22:05.463Z,18.33
2023-05-08T17:25:09.466Z,18.50
2023-05-08T17:28:12.612Z,18.80
2023-05-08T17:31:17.120Z,18.40
2023-05-08T17:34:20.328Z,18.30
2023-05-08T17:37:23.422Z,17.07
2023-05-08T17:40:28.862Z,17.50
2023-05-08T17:43:31.995Z,18.03
2023-05-08T17:46:36.675Z,20.47
2023-05-08T17:49:39.858Z,18.10
2023-05-08T17:52:43.027Z,18.77
2023-05-08T17:55:46.195Z,17.70
2023-05-08T17:58:49.367Z,17.50
2023-05-08T18:01:54.555Z,17.00
2023-05-08T18:04:57.829Z,18.07
2023-05-08T18:08:00.991Z,18.37
2023-05-08T18:11:04.134Z,17.27
2023-05-08T18:14:07.208Z,17.60
2023-05-08T18:17:15.463Z,17.93
2023-05-08T18:20:20.393Z,19.40
2023-05-08T18:23:23.757Z,18.17
2023-05-08T18:26:27.070Z,19.00
2023-05-08T18:29:30.950Z,18.60
2023-05-08T18:32:37.051Z,19.17
2023-05-08T18:35:40.300Z,17.50
2023-05-08T18:38:43.703Z,19.43
2023-05-08T18:41:47.003Z,19.17
2023-05-08T18:44:50.575Z,20.20
2023-05-08T18:47:57.525Z,18.37
2023-05-08T18:51:00.988Z,18.27
2023-05-08T18:54:04.079Z,18.00
2023-05-08T18:57:07.563Z,17.50
2023-05-08T19:00:12.268Z,19.40
2023-05-08T19:03:18.565Z,18.20
2023-05-08T19:06:22.199Z,19.33
2023-05-08T19:09:25.373Z,18.83
2023-05-08T19:12:28.508Z,21.03
2023-05-08T19:15:31.749Z,19.43
2023-05-08T19:18:36.510Z,19.27
2023-05-08T19:21:39.978Z,19.03
2023-05-08T19:24:43.769Z,20.53
2023-05-08T19:27:47.339Z,19.07
2023-05-08T19:30:50.478Z,20.00
2023-05-08T19:33:55.387Z,18.70
2023-05-08T19:36:58.664Z,20.40
2023-05-08T19:40:01.732Z,20.30
2023-05-08T19:43:05.400Z,21.60
2023-05-08T19:46:08.686Z,19.73
2023-05-08T19:49:14.403Z,19.07
2023-05-08T19:52:17.500Z,20.27
2023-05-08T19:55:20.585Z,19.23
2023-05-08T19:58:24.102Z,19.63
2023-05-08T20:01:27.362Z,19.77
2023-05-08T20:04:35.964Z,20.10
2023-05-08T20:07:45.490Z,19.77
2023-05-08T20:10:49.119Z,19.17
2023-05-08T20:13:52.304Z,18.87
2023-05-08T20:16:55.482Z,17.73
2023-05-08T20:19:59.995Z,18.83
2023-05-08T20:23:04.551Z,17.20
2023-05-08T20:26:08.599Z,17.47
2023-05-08T20:29:11.790Z,16.87
2023-05-08T20:32:16.437Z,17.53
2023-05-08T20:35:21.394Z,17.10
2023-05-08T20:38:24.536Z,16.70
2023-05-08T20:41:27.628Z,16.43
2023-05-08T20:44:33.610Z,15.80
2023-05-08T20:47:37.027Z,15.83
2023-05-08T20:50:41.609Z,16.30
2023-05-08T20:53:44.754Z,15.97
2023-05-08T20:56:47.830Z,15.80
2023-05-08T20:59:50.918Z,13.20
2023-05-08T21:02:54.015Z,14.13
2023-05-08T21:05:58.549Z,13.60
2023-05-08T21:09:01.624Z,13.77
2023-05-08T21:12:05.156Z,12.77
2023-05-08T21:15:09.437Z,14.03
2023-05-08T21:18:12.618Z,14.53
2023-05-08T21:21:18.059Z,15.60
2023-05-08T21:24:21.782Z,14.90
2023-05-08T21:27:25.985Z,13.40
2023-05-08T21:30:29.118Z,15.00
2023-05-08T21:33:33.630Z,14.03
2023-05-08T21:36:38.121Z,13.70
2023-05-08T21:39:42.010Z,14.53
2023-05-08T21:42:45.085Z,12.93
2023-05-08T21:45:48.236Z,13.50
2023-05-08T21:48:51.549Z,13.40
2023-05-08T21:51:57.926Z,14.97
2023-05-08T21:55:01.064Z,13.53
2023-05-08T21:58:04.196Z,14.60
2023-05-08T22:01:07.412Z,13.30
2023-05-08T22:04:10.501Z,12.53
2023-05-08T22:07:15.007Z,12.00
2023-05-08T22:10:18.293Z,13.90
2023-05-08T22:13:21.504Z,12.63
2023-05-08T22:16:24.811Z,13.10
2023-05-08T22:19:28.461Z,12.60
2023-05-08T22:22:32.975Z,12.30
2023-05-08T22:25:36.120Z,14.13
2023-05-08T22:28:39.256Z,12.83
2023-05-08T22:31:42.455Z,13.23
2023-05-08T22:34:46.510Z,12.83
2023-05-08T22:37:51.183Z,13.60
2023-05-08T22:40:57.485Z,13.30
2023-05-08T22:44:00.914Z,11.30
2023-05-08T22:47:04.328Z,12.77
2023-05-08T22:50:09.334Z,11.57
2023-05-08T22:53:13.891Z,12.70
2023-05-08T22:56:16.978Z,12.40
2023-05-08T22:59:20.095Z,11.90
2023-05-08T23:02:24.391Z,12.70
2023-05-08T23:05:27.539Z,11.97
2023-05-08T23:08:32.112Z,12.60
2023-05-08T23:11:35.250Z,11.60
2023-05-08T23:14:38.490Z,13.20
2023-05-08T23:17:41.720Z,13.57
2023-05-08T23:20:44.773Z,13.57
2023-05-08T23:23:49.225Z,13.13
2023-05-08T23:26:52.695Z,12.50
2023-05-08T23:29:55.811Z,11.27
2023-05-08T23:32:58.954Z,11.50
2023-05-08T23:36:02.063Z,11.87
2023-05-08T23:39:07.172Z,11.03
2023-05-08T23:42:10.391Z,11.50
2023-05-08T23:45:13.754Z,12.00
2023-05-08T23:48:17.866Z,12.40
2023-05-08T23:51:21.036Z,11.07
2023-05-08T23:54:25.704Z,11.37
2023-05-08T23:57:28.807Z,12.47
